Time;durP1;ratioP1;P1;durP2;ratioP2;P2;SDS_P1;SDS_P2;PMS_P1;PMS_P2;Temp;Humidity;BMP_temperature;BMP_pressure;BME280_temperature;BME280_humidity;BME280_pressure;Samples;Min_cycle;Max_cycle;Signal;HPM_P1;HPM_P2
2022/03/29 00:02:07;;;;;;;41.78;23.17;;;;;;;10.04;76.05;100948.41;4924965;29;20062;-82
2022/03/29 00:04:34;;;;;;;43.85;23.13;;;;;;;10.07;76.78;100962.03;4933366;29;20080;-82
2022/03/29 00:07:01;;;;;;;44.38;23.45;;;;;;;9.94;76.56;100951.91;4944663;29;20094;-84
2022/03/29 00:09:29;;;;;;;41.97;22.55;;;;;;;10.08;76.45;100961.06;4946497;29;20103;-82
2022/03/29 00:11:56;;;;;;;43.47;24.35;;;;;;;9.96;76.76;100954.38;4947066;29;20052;-83
2022/03/29 00:14:23;;;;;;;42.75;22.80;;;;;;;9.90;77.46;100962.81;4947134;29;20107;-83
2022/03/29 00:16:49;;;;;;;43.05;23.05;;;;;;;9.93;77.29;100965.09;4946609;29;20047;-82
2022/03/29 00:19:16;;;;;;;42.55;22.63;;;;;;;9.88;77.33;100951.69;4945793;29;20113;-82
2022/03/29 00:21:43;;;;;;;38.40;23.30;;;;;;;9.76;77.78;100947.59;4946109;29;20115;-82
2022/03/29 00:24:09;;;;;;;39.45;22.42;;;;;;;9.76;77.72;100952.81;4947399;29;20056;-82
2022/03/29 00:26:37;;;;;;;41.22;23.65;;;;;;;9.75;77.88;100946.75;4946656;29;20111;-83
2022/03/29 00:29:04;;;;;;;40.25;21.55;;;;;;;9.71;77.91;100950.63;4946589;29;20083;-83
2022/03/29 00:31:30;;;;;;;43.40;21.60;;;;;;;9.71;77.77;100940.19;4946357;29;20055;-84
2022/03/29 00:33:58;;;;;;;38.83;23.75;;;;;;;9.63;78.01;100935.66;4945983;29;20115;-84
2022/03/29 00:36:27;;;;;;;38.30;21.80;;;;;;;9.72;77.80;100946.22;4946030;29;20048;-84
2022/03/29 00:38:55;;;;;;;36.95;22.38;;;;;;;9.61;78.23;100934.97;4945729;29;20520;-84
2022/03/29 00:41:23;;;;;;;44.30;21.65;;;;;;;9.61;77.95;100940.19;4945618;29;20062;-85
2022/03/29 00:43:53;;;;;;;37.78;21.52;;;;;;;9.71;77.75;100934.13;4941983;29;20060;-85
2022/03/29 00:46:20;;;;;;;39.13;21.20;;;;;;;9.67;77.83;100932.75;4926124;29;20059;-84
2022/03/29 00:48:47;;;;;;;38.75;21.75;;;;;;;9.65;78.09;100925.88;4926937;29;20071;-84
2022/03/29 00:51:15;;;;;;;36.17;20.83;;;;;;;9.64;77.88;100933.88;4926820;29;20080;-84
2022/03/29 00:53:42;;;;;;;39.55;21.85;;;;;;;9.55;77.95;100912.03;4928180;29;20055;-84
2022/03/29 00:56:09;;;;;;;37.47;20.70;;;;;;;9.45;78.34;100916.44;4924686;29;20076;-85
2022/03/29 00:58:37;;;;;;;37.58;21.17;;;;;;;9.36;78.48;100914.72;4926214;29;20075;-83
2022/03/29 01:01:09;;;;;;;37.72;21.00;;;;;;;9.48;78.09;100907.50;4925474;29;20580;-83
2022/03/29 01:03:38;;;;;;;40.10;21.75;;;;;;;9.31;79.13;100915.13;4924357;29;20202;-83
2022/03/29 01:06:08;;;;;;;40.67;20.38;;;;;;;9.37;78.69;100915.53;4925300;29;20060;-82
2022/03/29 01:08:36;;;;;;;40.13;21.10;;;;;;;9.31;78.65;100909.09;4927227;29;20080;-83
2022/03/29 01:11:03;;;;;;;39.50;21.00;;;;;;;9.28;78.99;100911.97;4929481;29;20082;-81
2022/03/29 01:13:29;;;;;;;38.92;20.38;;;;;;;9.39;78.55;100903.16;4928247;29;20115;-82
2022/03/29 01:17:38;;;;;;;39.47;20.27;;;;;;;9.30;79.06;100903.03;4928304;29;20076;-82
2022/03/29 01:18:44;;;;;;;35.88;21.00;;;;;;;9.26;78.99;100899.06;4927731;29;20056;-82
2022/03/29 01:21:16;;;;;;;36.45;20.33;;;;;;;9.23;79.00;100895.91;4928617;29;20058;-81
2022/03/29 01:23:46;;;;;;;39.00;21.10;;;;;;;9.15;79.55;100890.56;4927546;29;20048;-82
2022/03/29 01:26:14;;;;;;;37.25;22.17;;;;;;;9.13;79.87;100879.44;4927061;29;20334;-82
2022/03/29 01:28:41;;;;;;;40.58;23.20;;;;;;;9.18;79.52;100887.66;4927237;29;20082;-83
2022/03/29 01:31:09;;;;;;;44.03;25.50;;;;;;;9.16;79.64;100890.41;4927133;29;20116;-82
2022/03/29 01:33:36;;;;;;;37.58;20.77;;;;;;;9.19;79.32;100882.31;4927192;29;20059;-81
2022/03/29 01:36:03;;;;;;;41.63;22.13;;;;;;;9.09;79.65;100883.28;4926931;29;20056;-82
2022/03/29 01:38:30;;;;;;;43.40;21.17;;;;;;;9.06;79.79;100871.34;4926195;29;20055;-82
2022/03/29 01:41:03;;;;;;;39.35;21.08;;;;;;;9.13;79.92;100882.03;4931452;29;20052;-81
2022/03/29 01:43:29;;;;;;;35.13;18.80;;;;;;;9.12;79.85;100883.81;4930594;29;20055;-82
2022/03/29 01:45:56;;;;;;;35.33;19.92;;;;;;;9.20;79.44;100870.06;4927870;29;20083;-81
2022/03/29 01:48:24;;;;;;;43.90;19.67;;;;;;;9.13;79.70;100866.38;4932102;29;20473;-82
2022/03/29 01:50:51;;;;;;;40.42;20.08;;;;;;;9.13;79.73;100869.81;4930915;29;20422;-81
2022/03/29 01:53:25;;;;;;;34.97;20.40;;;;;;;9.10;79.46;100862.25;4929188;29;20087;-83
2022/03/29 01:55:55;;;;;;;44.55;22.10;;;;;;;9.13;79.47;100868.97;4925201;29;20052;-83
2022/03/29 01:58:24;;;;;;;39.25;19.92;;;;;;;9.02;80.08;100863.91;4925150;29;20048;-82
2022/03/29 02:00:50;;;;;;;41.45;20.08;;;;;;;9.11;80.01;100863.91;4926547;29;20075;-82
2022/03/29 02:03:17;;;;;;;42.70;19.30;;;;;;;9.07;79.88;100859.09;4930922;29;20144;-82
2022/03/29 02:05:44;;;;;;;37.72;19.75;;;;;;;9.01;80.06;100852.66;4925150;29;20580;-82
2022/03/29 02:08:11;;;;;;;41.25;20.02;;;;;;;8.99;80.27;100847.56;4924205;29;20084;-81
2022/03/29 02:10:37;;;;;;;38.78;20.75;;;;;;;9.04;80.16;100847.16;4923786;29;20055;-81
2022/03/29 02:13:04;;;;;;;36.55;19.65;;;;;;;8.99;80.17;100834.53;4925392;29;20139;-82
2022/03/29 02:15:32;;;;;;;35.75;19.55;;;;;;;9.13;79.46;100841.09;4926740;29;20429;-82
2022/03/29 02:18:01;;;;;;;41.45;20.13;;;;;;;9.09;79.62;100836.28;4925849;29;20063;-81
2022/03/29 02:20:28;;;;;;;38.10;19.42;;;;;;;9.09;79.84;100831.91;4926576;29;20056;-82
2022/03/29 02:22:55;;;;;;;39.95;19.70;;;;;;;9.13;79.68;100829.81;4925180;29;20398;-82
2022/03/29 02:25:22;;;;;;;39.17;19.17;;;;;;;9.13;79.57;100832.44;4925689;29;20076;-81
2022/03/29 02:27:49;;;;;;;36.80;19.88;;;;;;;9.18;79.52;100832.84;4926518;29;20088;-81
2022/03/29 02:30:17;;;;;;;37.50;20.42;;;;;;;9.15;79.29;100831.34;4926100;29;20087;-82
2022/03/29 02:32:46;;;;;;;36.75;20.02;;;;;;;9.15;79.59;100823.50;4925366;29;20048;-82
2022/03/29 02:35:13;;;;;;;36.13;19.15;;;;;;;9.07;80.33;100825.16;4924933;29;20143;-82
2022/03/29 02:37:40;;;;;;;32.10;19.23;;;;;;;9.05;80.08;100821.88;4925621;29;20143;-83
2022/03/29 02:40:09;;;;;;;41.95;20.85;;;;;;;9.03;80.50;100824.63;4924455;29;20509;-82
2022/03/29 02:42:40;;;;;;;39.35;20.25;;;;;;;9.02;80.69;100817.75;4924321;29;20112;-82
2022/03/29 02:45:09;;;;;;;32.08;19.80;;;;;;;9.13;79.91;100812.38;4911259;29;20080;-82
2022/03/29 02:47:36;;;;;;;35.90;20.30;;;;;;;9.11;79.74;100808.25;4904996;29;20098;-84
2022/03/29 02:50:05;;;;;;;33.72;19.73;;;;;;;9.14;79.54;100805.38;4905019;29;20084;-83
2022/03/29 02:52:31;;;;;;;34.88;19.30;;;;;;;9.14;79.57;100805.38;4901652;29;20059;-83
2022/03/29 02:54:58;;;;;;;36.35;19.25;;;;;;;9.11;79.95;100805.66;4903075;29;20147;-83
2022/03/29 02:57:27;;;;;;;39.10;20.20;;;;;;;9.11;79.54;100798.63;4903513;29;20111;-82
2022/03/29 02:59:54;;;;;;;36.95;19.73;;;;;;;9.18;79.84;100801.50;4902842;29;20124;-81
2022/03/29 03:02:22;;;;;;;36.95;21.80;;;;;;;9.09;79.66;100791.91;4904626;29;20191;-80
2022/03/29 03:04:48;;;;;;;40.15;20.00;;;;;;;9.06;80.14;100790.41;4906064;29;20053;-81
2022/03/29 03:07:17;;;;;;;35.75;20.38;;;;;;;9.02;79.91;100790.84;4904908;29;20083;-81
2022/03/29 03:09:44;;;;;;;37.15;19.98;;;;;;;8.98;80.21;100792.91;4910115;29;20052;-81
2022/03/29 03:12:11;;;;;;;37.08;18.80;;;;;;;9.04;79.99;100791.50;4910548;29;20124;-81
2022/03/29 03:14:37;;;;;;;39.15;19.70;;;;;;;8.94;80.58;100789.78;4905058;29;20120;-82
2022/03/29 03:17:04;;;;;;;37.80;19.73;;;;;;;8.94;80.64;100778.53;4904558;29;20455;-84
2022/03/29 03:19:31;;;;;;;33.30;18.67;;;;;;;8.94;80.35;100795.00;4903689;29;20088;-84
2022/03/29 03:21:57;;;;;;;41.28;19.42;;;;;;;8.95;80.47;100786.22;4903986;29;20083;-85
2022/03/29 03:24:26;;;;;;;35.72;20.80;;;;;;;8.97;80.47;100779.06;4902703;29;20093;-85
2022/03/29 03:26:52;;;;;;;32.80;19.95;;;;;;;8.93;80.46;100777.69;4900516;29;20540;-85
2022/03/29 03:29:19;;;;;;;33.97;19.80;;;;;;;8.91;80.59;100773.56;4901241;29;20048;-85
2022/03/29 03:31:45;;;;;;;43.85;20.52;;;;;;;8.84;80.40;100773.31;4902457;29;20148;-84
2022/03/29 03:34:12;;;;;;;38.40;20.77;;;;;;;8.87;80.72;100773.03;4904199;29;20087;-84
2022/03/29 03:36:39;;;;;;;40.17;20.92;;;;;;;8.87;80.17;100775.66;4905321;29;20044;-82
2022/03/29 03:39:05;;;;;;;40.78;22.55;;;;;;;8.94;80.26;100768.91;4905916;29;20136;-83
2022/03/29 03:41:33;;;;;;;37.20;21.70;;;;;;;8.86;80.30;100765.34;4906047;29;20111;-83
2022/03/29 03:44:00;;;;;;;45.33;21.60;;;;;;;8.79;80.00;100752.03;4907821;29;20488;-84
2022/03/29 03:46:28;;;;;;;37.05;21.42;;;;;;;8.71;80.73;100744.09;4903374;29;20049;-83
2022/03/29 03:48:55;;;;;;;41.10;21.92;;;;;;;8.84;80.24;100749.84;4903808;29;20052;-83
2022/03/29 03:51:22;;;;;;;37.25;20.15;;;;;;;8.87;80.18;100760.00;4907653;29;20053;-83
2022/03/29 03:53:59;;;;;;;37.97;21.60;;;;;;;8.77;80.39;100751.38;4904090;29;20195;-83
2022/03/29 03:56:56;;;;;;;38.50;20.48;;;;;;;8.77;80.46;100743.53;4903318;29;20052;-82
2022/03/29 03:59:33;;;;;;;41.17;20.70;;;;;;;8.78;80.44;100746.97;4907922;29;20402;-84
2022/03/29 04:02:17;;;;;;;34.85;19.70;;;;;;;8.81;80.19;100751.91;4922608;29;20085;-84
2022/03/29 04:04:44;;;;;;;35.50;20.00;;;;;;;8.78;80.26;100736.53;4927384;29;20066;-81
2022/03/29 04:07:11;;;;;;;37.42;20.55;;;;;;;8.71;80.86;100735.44;4925154;29;20090;-84
2022/03/29 04:09:41;;;;;;;37.35;20.98;;;;;;;8.68;81.01;100739.16;4932054;29;20067;-84
2022/03/29 04:12:09;;;;;;;36.75;21.13;;;;;;;8.53;81.08;100711.88;4925285;29;20052;-85
2022/03/29 04:14:37;;;;;;;40.63;21.75;;;;;;;8.50;81.53;100706.97;4924933;29;20052;-83
2022/03/29 04:17:05;;;;;;;35.97;20.23;;;;;;;8.57;81.47;100718.44;4923398;29;20088;-83
2022/03/29 04:19:33;;;;;;;36.05;20.90;;;;;;;8.55;81.46;100715.16;4922298;29;20079;-84
2022/03/29 04:22:00;;;;;;;37.60;21.35;;;;;;;8.53;81.79;100717.09;4927568;29;20036;-85
2022/03/29 04:24:30;;;;;;;40.53;23.00;;;;;;;8.59;81.74;100716.53;4928533;29;20075;-86
2022/03/29 04:26:58;;;;;;;38.58;20.67;;;;;;;8.55;81.45;100710.75;4927175;29;20130;-84
2022/03/29 04:29:25;;;;;;;34.53;20.40;;;;;;;8.46;81.92;100703.81;4925270;29;20052;-85
2022/03/29 04:31:53;;;;;;;41.53;22.15;;;;;;;8.42;81.88;100702.44;4928557;29;20481;-84
2022/03/29 04:34:20;;;;;;;40.75;22.52;;;;;;;8.36;82.50;100708.22;4928215;29;20052;-85
2022/03/29 04:36:47;;;;;;;40.03;21.40;;;;;;;8.32;82.63;100702.44;4925389;29;20060;-84
2022/03/29 04:39:14;;;;;;;38.17;21.83;;;;;;;8.30;82.72;100695.69;4923053;29;20060;-84
2022/03/29 04:41:42;;;;;;;32.33;20.55;;;;;;;8.45;82.25;100706.56;4928487;29;20049;-84
2022/03/29 04:44:08;;;;;;;39.65;21.77;;;;;;;8.42;82.18;100699.00;4928118;29;20036;-84
2022/03/29 04:46:35;;;;;;;40.35;22.55;;;;;;;8.45;81.79;100698.72;4925472;29;20090;-84
2022/03/29 04:49:03;;;;;;;44.90;23.10;;;;;;;8.36;82.49;100694.34;4928396;29;20143;-83
2022/03/29 04:51:31;;;;;;;40.55;21.83;;;;;;;8.30;82.58;100701.75;4931748;29;20088;-82
2022/03/29 04:53:57;;;;;;;36.20;21.95;;;;;;;8.36;82.73;100679.53;4936727;29;20058;-85
2022/03/29 04:56:24;;;;;;;38.50;21.80;;;;;;;8.29;82.54;100676.63;4931780;29;20052;-85
2022/03/29 04:58:51;;;;;;;35.20;21.65;;;;;;;8.37;82.64;100685.56;4935899;29;20066;-83
2022/03/29 05:01:27;;;;;;;42.08;23.05;;;;;;;8.24;83.07;100684.03;4937338;29;20052;-84
2022/03/29 05:03:54;;;;;;;35.65;22.15;;;;;;;8.14;83.52;100675.41;4932914;29;20056;-84
2022/03/29 05:06:28;;;;;;;41.67;23.15;;;;;;;8.08;84.04;100681.16;4930502;29;20044;-86
2022/03/29 05:08:55;;;;;;;42.47;25.88;;;;;;;7.96;84.09;100662.28;4932194;29;20074;-86
2022/03/29 05:11:24;;;;;;;43.88;24.25;;;;;;;7.95;84.35;100657.22;4927086;29;20048;-85
2022/03/29 05:13:51;;;;;;;43.47;24.90;;;;;;;7.95;84.37;100660.63;4939212;29;20056;-84
2022/03/29 05:16:18;;;;;;;48.67;26.00;;;;;;;8.01;83.58;100659.25;4939201;29;20056;-85
2022/03/29 05:18:45;;;;;;;42.22;24.75;;;;;;;8.14;83.73;100664.97;4938347;29;20099;-85
2022/03/29 05:21:12;;;;;;;46.13;25.50;;;;;;;8.18;83.68;100666.34;4937409;29;20078;-85
2022/03/29 05:23:40;;;;;;;44.13;23.80;;;;;;;8.13;83.72;100665.94;4931943;29;20048;-85
2022/03/29 05:26:06;;;;;;;38.63;23.30;;;;;;;8.08;83.59;100670.75;4924078;29;20056;-82
2022/03/29 05:28:35;;;;;;;40.38;23.35;;;;;;;8.12;83.59;100666.09;4923999;29;20135;-83
2022/03/29 05:31:02;;;;;;;41.97;23.73;;;;;;;8.20;83.26;100669.63;4925813;29;20052;-83
2022/03/29 05:33:28;;;;;;;41.35;22.55;;;;;;;8.13;83.70;100665.13;4924616;29;20146;-83
2022/03/29 05:35:56;;;;;;;38.25;22.00;;;;;;;8.06;84.12;100662.25;4923486;29;20151;-83
2022/03/29 05:38:23;;;;;;;38.78;21.25;;;;;;;8.13;83.94;100665.94;4923887;29;20052;-82
2022/03/29 05:40:51;;;;;;;36.90;22.73;;;;;;;8.14;83.77;100664.97;4924080;29;20135;-83
2022/03/29 05:43:18;;;;;;;35.38;22.10;;;;;;;8.09;83.93;100669.78;4923470;29;20464;-82
2022/03/29 05:48:51;;;;;;;38.45;24.02;;;;;;;8.21;83.55;100671.28;4935593;23;20274;-81
2022/03/29 05:48:55;;;;;;;38.70;22.15;;;;;;;8.23;83.33;100666.75;4906411;29;20117;-82
2022/03/29 05:51:23;;;;;;;38.70;22.92;;;;;;;8.33;82.79;100677.19;4888051;29;20053;-82
2022/03/29 05:54:01;;;;;;;40.00;23.00;;;;;;;8.39;82.46;100674.03;4888376;29;20052;-82
2022/03/29 05:59:31;;;;;;;38.88;21.98;;;;;;;8.29;82.65;100663.59;4887025;29;20088;-82
2022/03/29 06:02:04;;;;;;;41.25;22.48;;;;;;;8.34;82.58;100657.16;4887237;29;20508;-82
2022/03/29 06:23:26;;;;;;;37.00;22.80;;;;;;;8.58;82.20;100694.00;4892829;29;20060;-82
2022/03/29 06:25:54;;;;;;;38.20;23.95;;;;;;;8.63;82.30;100691.81;4904430;29;20517;-84
2022/03/29 06:28:21;;;;;;;39.63;24.15;;;;;;;8.72;81.80;100705.78;4901008;29;20056;-84
2022/03/29 06:30:49;;;;;;;39.40;22.73;;;;;;;8.87;80.94;100699.97;4901243;29;20060;-84
2022/03/29 06:33:16;;;;;;;37.70;23.05;;;;;;;8.93;80.62;100699.41;4901302;29;20108;-83
2022/03/29 06:35:43;;;;;;;39.88;23.13;;;;;;;8.91;80.55;100703.94;4903065;29;20056;-83
2022/03/29 06:38:09;;;;;;;36.63;22.88;;;;;;;8.98;80.36;100701.56;4903624;29;20147;-84
2022/03/29 06:40:37;;;;;;;40.97;24.50;;;;;;;9.02;80.47;100691.66;4904165;29;20120;-85
2022/03/29 06:43:04;;;;;;;41.40;23.50;;;;;;;8.90;80.42;100691.84;4904214;29;20070;-84
2022/03/29 06:45:37;;;;;;;41.83;25.90;;;;;;;9.05;80.40;100696.59;4890247;29;20116;-84
2022/03/29 06:48:04;;;;;;;40.38;24.05;;;;;;;9.05;79.82;100701.81;4883834;29;20482;-84
2022/03/29 06:50:32;;;;;;;44.80;25.80;;;;;;;9.01;79.80;100703.06;4884174;29;20136;-84
2022/03/29 06:53:00;;;;;;;43.58;25.10;;;;;;;9.15;79.37;100702.59;4883927;29;20055;-84
2022/03/29 06:55:27;;;;;;;43.22;25.15;;;;;;;9.08;80.04;100704.13;4884743;29;20116;-83
2022/03/29 06:57:59;;;;;;;39.83;25.52;;;;;;;9.12;79.64;100695.03;4883218;29;20144;-83
2022/03/29 07:00:26;;;;;;;41.95;25.48;;;;;;;9.24;79.06;100701.72;4882021;29;20152;-83
2022/03/29 07:02:53;;;;;;;42.55;25.52;;;;;;;9.42;78.49;100699.97;4880766;29;20135;-84
2022/03/29 07:05:20;;;;;;;39.17;26.08;;;;;;;9.36;78.17;100694.50;4881144;29;20059;-83
2022/03/29 07:07:46;;;;;;;42.20;24.98;;;;;;;9.43;78.12;100690.34;4880973;29;20045;-83
2022/03/29 07:13:01;;;;;;;44.03;25.70;;;;;;;9.57;77.89;100693.25;4883034;29;20063;-84
2022/03/29 07:15:28;;;;;;;36.97;24.85;;;;;;;9.71;76.90;100686.72;4885120;29;20049;-84
2022/03/29 07:17:55;;;;;;;45.17;25.33;;;;;;;9.75;77.06;100679.41;4885823;29;20132;-84
2022/03/29 07:20:23;;;;;;;39.83;24.45;;;;;;;9.88;76.24;100687.69;4887077;29;20084;-84
2022/03/29 07:22:50;;;;;;;42.40;25.73;;;;;;;9.84;76.53;100697.63;4887470;29;20091;-84
2022/03/29 07:25:19;;;;;;;49.22;27.15;;;;;;;9.87;76.48;100688.66;4887534;29;20073;-84
2022/03/29 07:27:46;;;;;;;42.05;25.30;;;;;;;9.97;75.59;100690.19;4887562;29;20045;-84
2022/03/29 07:30:15;;;;;;;41.55;26.92;;;;;;;10.32;75.02;100691.16;4886241;29;20072;-84
2022/03/29 07:32:46;;;;;;;42.83;25.15;;;;;;;10.61;73.58;100688.22;4887960;29;20520;-83
2022/03/29 07:35:14;;;;;;;44.67;23.98;;;;;;;10.57;73.19;100682.50;4887663;29;20076;-82
2022/03/29 07:37:43;;;;;;;43.33;25.80;;;;;;;10.67;73.06;100682.38;4887957;29;20128;-82
2022/03/29 07:40:12;;;;;;;45.25;26.05;;;;;;;10.70;73.08;100681.25;4887617;29;20132;-82
2022/03/29 07:42:38;;;;;;;44.20;26.77;;;;;;;10.39;73.70;100684.34;4887983;29;20136;-82
2022/03/29 07:45:07;;;;;;;42.03;25.50;;;;;;;10.58;74.01;100688.53;4889481;29;20096;-82
2022/03/29 07:47:35;;;;;;;39.60;24.67;;;;;;;10.46;73.59;100685.34;4887799;29;20057;-82
2022/03/29 07:50:06;;;;;;;44.45;27.42;;;;;;;10.48;73.62;100682.59;4894152;29;20053;-82
2022/03/29 07:52:33;;;;;;;55.05;26.90;;;;;;;10.55;74.29;100681.81;4896977;29;20068;-82
2022/03/29 07:54:59;;;;;;;40.95;25.88;;;;;;;10.66;74.11;100680.75;4888146;29;20060;-82
2022/03/29 07:57:26;;;;;;;45.10;26.48;;;;;;;10.90;73.27;100691.31;4895629;29;20053;-82
2022/03/29 07:59:52;;;;;;;45.88;26.98;;;;;;;11.04;73.33;100683.88;4896198;29;20088;-82
2022/03/29 08:02:19;;;;;;;40.72;26.10;;;;;;;11.28;72.43;100681.34;4890960;29;20140;-82
2022/03/29 08:04:47;;;;;;;39.65;26.35;;;;;;;11.44;70.37;100686.59;4886095;29;20529;-82
2022/03/29 08:07:14;;;;;;;44.80;26.20;;;;;;;11.46;69.94;100686.44;4884845;29;20087;-82
2022/03/29 08:09:41;;;;;;;46.17;28.17;;;;;;;11.33;69.71;100683.50;4884100;29;20072;-83
2022/03/29 08:12:10;;;;;;;46.03;26.33;;;;;;;11.51;69.73;100687.59;4894013;29;20049;-83
2022/03/29 08:14:40;;;;;;;44.35;27.13;;;;;;;11.77;68.28;100687.53;4894679;29;20071;-82
2022/03/29 08:17:06;;;;;;;42.58;25.98;;;;;;;11.64;68.35;100676.66;4893611;29;20423;-83
2022/03/29 08:19:33;;;;;;;43.67;26.02;;;;;;;11.34;70.07;100674.66;4890709;29;20164;-83
2022/03/29 08:22:01;;;;;;;42.00;26.20;;;;;;;11.66;69.39;100672.09;4886248;29;20049;-82
2022/03/29 08:24:28;;;;;;;42.67;27.10;;;;;;;11.72;68.99;100668.81;4885451;29;20061;-82
2022/03/29 08:26:56;;;;;;;37.22;25.45;;;;;;;11.86;68.05;100656.88;4885168;29;20055;-83
2022/03/29 08:29:23;;;;;;;44.83;26.67;;;;;;;11.99;67.75;100648.53;4886555;29;20052;-83
2022/03/29 08:31:52;;;;;;;40.13;26.55;;;;;;;11.87;68.92;100648.84;4884604;29;20089;-83
2022/03/29 08:34:20;;;;;;;43.85;26.30;;;;;;;11.78;68.19;100646.41;4883223;29;20057;-81
2022/03/29 08:36:49;;;;;;;41.97;26.60;;;;;;;12.09;67.87;100655.25;4884601;29;20052;-83
2022/03/29 08:39:17;;;;;;;46.53;26.92;;;;;;;12.19;66.88;100650.66;4884722;29;20073;-84
2022/03/29 08:41:50;;;;;;;41.20;26.77;;;;;;;12.13;67.55;100648.69;4884315;29;20216;-83
2022/03/29 08:44:17;;;;;;;42.00;26.38;;;;;;;12.19;66.59;100645.41;4886571;29;20121;-83
2022/03/29 08:46:46;;;;;;;44.15;26.77;;;;;;;12.68;64.86;100637.41;4885884;29;20049;-83
2022/03/29 08:49:16;;;;;;;42.03;26.60;;;;;;;12.88;63.72;100645.69;4885388;29;20084;-82
2022/03/29 08:51:43;;;;;;;37.45;25.55;;;;;;;13.17;62.45;100634.59;4884748;29;20053;-82
2022/03/29 08:54:09;;;;;;;40.40;27.40;;;;;;;12.94;63.23;100645.00;4885336;29;20112;-83
2022/03/29 08:56:39;;;;;;;41.85;26.90;;;;;;;13.10;62.78;100638.88;4883803;29;20136;-83
2022/03/29 08:59:05;;;;;;;40.65;25.55;;;;;;;13.08;61.71;100643.47;4884812;29;20053;-83
2022/03/29 09:01:32;;;;;;;46.85;26.80;;;;;;;12.58;63.27;100623.66;4884320;29;20068;-81
2022/03/29 09:04:07;;;;;;;40.00;25.77;;;;;;;12.45;64.24;100629.44;4884341;29;20374;-81
2022/03/29 09:06:54;;;;;;;45.25;26.10;;;;;;;13.15;61.93;100632.13;4884418;29;20139;-81
2022/03/29 09:09:23;;;;;;;37.17;24.48;;;;;;;13.08;60.51;100622.47;4884037;29;20052;-81
2022/03/29 09:11:53;;;;;;;36.90;24.52;;;;;;;13.23;59.78;100628.66;4884084;29;20056;-81
2022/03/29 09:14:21;;;;;;;36.72;24.50;;;;;;;13.49;59.14;100621.25;4889820;29;20099;-80
2022/03/29 09:16:48;;;;;;;38.53;23.83;;;;;;;13.38;58.75;100620.81;4903203;29;20048;-84
2022/03/29 09:19:17;;;;;;;43.63;25.23;;;;;;;13.28;59.32;100615.78;4900132;29;20049;-83
2022/03/29 09:21:46;;;;;;;34.05;23.67;;;;;;;13.75;57.88;100612.16;4899644;29;20053;-82
2022/03/29 09:24:25;;;;;;;35.78;24.67;;;;;;;13.92;56.65;100611.84;4900322;29;20093;-82
2022/03/29 09:26:54;;;;;;;35.08;23.60;;;;;;;14.13;56.60;100611.19;4902547;29;20108;-81
2022/03/29 09:29:23;;;;;;;36.40;23.30;;;;;;;14.33;55.33;100605.38;4899972;29;20218;-82
2022/03/29 09:32:04;;;;;;;32.88;23.17;;;;;;;13.18;57.18;100609.97;4896375;29;20057;-82
2022/03/29 09:34:39;;;;;;;33.05;23.02;;;;;;;13.33;57.86;100610.00;4897635;29;20124;-81
2022/03/29 09:37:10;;;;;;;34.55;22.45;;;;;;;13.43;56.99;100585.13;4899301;29;20465;-82
2022/03/29 09:39:39;;;;;;;37.63;23.63;;;;;;;13.68;55.97;100590.22;4904185;29;20048;-83
2022/03/29 09:42:11;;;;;;;34.70;21.17;;;;;;;13.80;55.03;100599.31;4896092;29;20056;-82
2022/03/29 09:44:41;;;;;;;33.83;22.15;;;;;;;13.84;55.78;100590.06;4903257;29;20470;-82
2022/03/29 09:47:13;;;;;;;33.55;22.45;;;;;;;13.35;56.27;100579.94;4895102;29;20049;-82
2022/03/29 09:49:57;;;;;;;28.80;21.40;;;;;;;13.78;54.96;100580.25;4901222;29;20060;-82
2022/03/29 09:52:26;;;;;;;35.58;22.65;;;;;;;14.04;53.82;100588.56;4889398;29;20119;-83
2022/03/29 09:55:13;;;;;;;35.30;22.25;;;;;;;14.01;54.96;100586.28;4900583;29;20086;-81
2022/03/29 09:57:44;;;;;;;41.30;24.05;;;;;;;13.94;54.83;100586.19;4890420;29;20127;-84
2022/03/29 10:00:15;;;;;;;31.02;22.02;;;;;;;13.90;54.83;100569.13;4903488;29;20067;-82
2022/03/29 10:02:45;;;;;;;31.70;21.65;;;;;;;13.88;54.77;100570.31;4897630;29;20048;-83
2022/03/29 10:05:12;;;;;;;34.47;23.40;;;;;;;13.71;55.34;100563.53;4896521;29;20129;-82
2022/03/29 10:07:45;;;;;;;34.17;21.60;;;;;;;13.98;54.24;100567.41;4889053;29;20659;-84
2022/03/29 10:10:12;;;;;;;34.03;21.95;;;;;;;14.16;53.67;100573.16;4900263;29;20443;-84
2022/03/29 10:12:41;;;;;;;33.10;21.83;;;;;;;14.51;52.33;100571.63;4890521;29;20120;-84
2022/03/29 10:15:09;;;;;;;32.83;22.00;;;;;;;14.90;52.26;100560.75;4893781;29;20124;-83
2022/03/29 10:17:37;;;;;;;28.60;21.83;;;;;;;14.68;52.56;100564.34;4898254;29;20108;-84
2022/03/29 10:20:06;;;;;;;32.95;21.60;;;;;;;15.39;51.34;100555.59;4888522;29;20053;-84
2022/03/29 10:22:37;;;;;;;35.80;22.25;;;;;;;15.83;50.79;100559.81;4899924;29;20049;-84
2022/03/29 10:25:07;;;;;;;30.42;21.60;;;;;;;15.20;50.41;100556.19;4901857;29;20056;-84
2022/03/29 10:27:34;;;;;;;31.02;22.83;;;;;;;14.92;53.32;100556.94;4898073;29;20045;-84
2022/03/29 10:30:02;;;;;;;29.60;23.77;;;;;;;14.64;54.08;100545.47;4884196;29;20065;-84
2022/03/29 10:32:31;;;;;;;37.90;24.25;;;;;;;14.73;53.42;100543.53;4893034;29;20056;-85
2022/03/29 10:35:09;;;;;;;33.63;22.88;;;;;;;14.48;54.32;100543.88;4895021;29;20147;-86
2022/03/29 10:37:54;;;;;;;35.08;23.58;;;;;;;14.74;53.58;100530.19;4906371;29;20078;-85
2022/03/29 10:40:38;;;;;;;30.27;23.30;;;;;;;14.91;53.08;100526.31;4889938;29;20075;-83
2022/03/29 10:43:28;;;;;;;32.22;23.80;;;;;;;14.78;53.13;100528.81;4896120;29;20112;-84
2022/03/29 10:45:58;;;;;;;32.38;23.17;;;;;;;15.31;51.93;100521.44;4904341;29;20107;-87
2022/03/29 10:48:25;;;;;;;27.40;22.42;;;;;;;14.97;52.30;100523.94;4894999;29;20135;-85
2022/03/29 10:50:57;;;;;;;36.85;22.95;;;;;;;15.09;52.41;100517.19;4899519;29;20053;-85
2022/03/29 10:53:24;;;;;;;28.85;22.15;;;;;;;15.09;52.35;100517.19;4902012;29;20132;-86
2022/03/29 10:56:15;;;;;;;32.83;21.30;;;;;;;15.35;51.26;100512.16;4893620;29;20116;-86
2022/03/29 10:59:13;;;;;;;29.95;21.52;;;;;;;15.67;51.09;100515.25;4895698;29;20045;-84
2022/03/29 11:07:57;;;;;;;34.35;21.50;;;;;;;14.61;52.54;100490.56;4882651;29;20057;-82
2022/03/29 11:10:41;;;;;;;31.35;21.35;;;;;;;15.25;51.48;100465.00;4893684;29;20084;-81
2022/03/29 11:13:24;;;;;;;33.60;21.73;;;;;;;15.69;51.04;100478.94;4900723;29;20049;-81
2022/03/29 11:15:55;;;;;;;30.40;20.55;;;;;;;15.97;50.67;100479.75;4907820;29;20052;-82
2022/03/29 11:18:56;;;;;;;29.02;21.70;;;;;;;15.80;49.52;100478.41;4892087;29;20426;-82
2022/03/29 11:21:47;;;;;;;30.05;19.73;;;;;;;15.51;49.07;100461.78;4875017;29;20066;-85
2022/03/29 11:24:17;;;;;;;30.05;20.00;;;;;;;15.54;49.03;100458.75;4892952;29;20063;-83
2022/03/29 11:27:26;;;;;;;30.77;20.77;;;;;;;16.02;48.43;100463.31;4909294;29;20072;-82
2022/03/29 11:30:40;;;;;;;29.88;20.27;;;;;;;15.62;49.05;100447.25;4914380;29;20060;-82
2022/03/29 11:33:14;;;;;;;25.42;19.40;;;;;;;16.21;46.63;100438.81;4903652;29;20056;-83
2022/03/29 11:35:41;;;;;;;23.90;17.25;;;;;;;15.75;46.89;100449.16;4907014;29;20158;-83
2022/03/29 11:38:10;;;;;;;23.65;16.98;;;;;;;16.13;46.23;100447.72;4893217;29;20059;-83
2022/03/29 11:40:39;;;;;;;25.17;18.42;;;;;;;16.22;46.04;100451.84;4898945;29;20083;-83
2022/03/29 11:43:10;;;;;;;22.42;17.05;;;;;;;16.57;44.96;100449.09;4904769;29;20171;-84
2022/03/29 11:45:42;;;;;;;23.70;17.38;;;;;;;16.47;46.13;100449.50;4904781;29;20051;-84
2022/03/29 11:48:12;;;;;;;22.95;16.38;;;;;;;16.50;45.30;100449.09;4902033;29;20076;-85
2022/03/29 11:50:42;;;;;;;20.38;14.82;;;;;;;16.31;46.39;100439.28;4894605;29;20048;-83
2022/03/29 11:53:20;;;;;;;19.67;15.82;;;;;;;16.33;45.31;100426.69;4898786;29;20116;-84
2022/03/29 11:56:03;;;;;;;21.65;14.88;;;;;;;15.50;46.31;100431.13;4893611;29;20896;-82
2022/03/29 11:58:36;;;;;;;19.10;13.52;;;;;;;15.77;46.20;100411.03;4898691;29;20051;-83